createdAt,value
2023-03-22T00:01:18.508Z,2.6
2023-03-22T00:04:16.248Z,2.6125
2023-03-22T00:07:16.219Z,2.5749999999999997
2023-03-22T00:11:17.982Z,2.6625
2023-03-22T00:14:17.134Z,2.3375
2023-03-22T00:17:16.895Z,2.0625
2023-03-22T00:21:17.226Z,3.075
2023-03-22T00:24:16.344Z,3.2875
2023-03-22T00:27:16.297Z,2.3499999999999996
2023-03-22T00:31:15.889Z,2.1875
2023-03-22T00:34:16.046Z,3.5625
2023-03-22T00:37:16.414Z,3.0500000000000003
2023-03-22T00:41:18.403Z,3.4625000000000004
2023-03-22T00:44:16.461Z,2.8125
2023-03-22T00:47:16.183Z,2.2625
2023-03-22T00:51:16.464Z,2.4875
2023-03-22T00:54:17.372Z,2.5
2023-03-22T00:57:18.106Z,2.1999999999999997
2023-03-22T01:01:16.625Z,3.0625
2023-03-22T01:04:18.377Z,2.3625
2023-03-22T01:07:18.093Z,2.3125
2023-03-22T01:11:16.606Z,2.4625000000000004
2023-03-22T01:14:16.602Z,2.1125
2023-03-22T01:17:16.620Z,1.6375
2023-03-22T01:21:15.917Z,2.1125
2023-03-22T01:24:17.008Z,1.9749999999999999
2023-03-22T01:27:16.532Z,2.3625
2023-03-22T01:31:15.915Z,2.4625
2023-03-22T01:34:16.995Z,2.35
2023-03-22T01:37:16.082Z,2.175
2023-03-22T01:41:16.363Z,2.2375
2023-03-22T01:44:19.572Z,2.675
2023-03-22T01:47:16.636Z,2.5875000000000004
2023-03-22T01:51:19.351Z,2.425
2023-03-22T01:54:22.312Z,2.2375
2023-03-22T01:57:16.578Z,1.7875
2023-03-22T02:01:15.705Z,2.3375000000000004
2023-03-22T02:04:18.722Z,1.7625
2023-03-22T02:07:18.042Z,2.2249999999999996
2023-03-22T02:11:19.720Z,2.6875
2023-03-22T02:14:31.161Z,2.4000000000000004
2023-03-22T02:31:42.457Z,2.375
2023-03-22T02:34:35.189Z,2.3125
2023-03-22T02:37:36.683Z,1.8250000000000002
2023-03-22T02:41:26.779Z,2.65
2023-03-22T02:44:25.487Z,2.8125
2023-03-22T02:47:23.376Z,2.4125
2023-03-22T02:51:21.006Z,2.575
2023-03-22T02:54:22.646Z,2.6750000000000003
2023-03-22T02:57:24.368Z,1.95
2023-03-22T03:01:22.871Z,2.3625
2023-03-22T03:04:18.822Z,2.4
2023-03-22T03:07:20.007Z,2.3499999999999996
2023-03-22T03:11:17.101Z,2.2625
2023-03-22T03:14:22.048Z,2.4124999999999996
2023-03-22T03:17:29.059Z,2.0374999999999996
2023-03-22T03:21:28.345Z,2.625
2023-03-22T03:24:25.284Z,1.7625
2023-03-22T03:27:22.608Z,2.775
2023-03-22T03:31:27.798Z,2.8125
2023-03-22T03:34:21.189Z,1.9749999999999999
2023-03-22T03:37:21.104Z,2.5125
2023-03-22T03:41:21.735Z,2.3875
2023-03-22T03:44:18.011Z,2.2625
2023-03-22T03:47:17.782Z,1.9249999999999998
2023-03-22T03:51:15.923Z,2.7249999999999996
2023-03-22T03:54:16.017Z,2.7875
2023-03-22T03:57:16.889Z,2.2249999999999996
2023-03-22T04:01:20.108Z,2.1624999999999996
2023-03-22T04:04:18.538Z,2.0875000000000004
2023-03-22T04:07:16.545Z,1.875
2023-03-22T04:11:16.543Z,2.05
2023-03-22T04:14:16.971Z,2.4875
2023-03-22T04:17:16.974Z,2.1125
2023-03-22T04:21:16.777Z,2.5125
2023-03-22T04:24:16.109Z,1.9625
2023-03-22T04:27:16.423Z,1.7999999999999998
2023-03-22T04:31:16.224Z,2.0625
2023-03-22T04:34:16.585Z,2.275
2023-03-22T04:37:17.568Z,2.1875
2023-03-22T04:41:16.747Z,2.5125
2023-03-22T04:44:16.020Z,1.9375
2023-03-22T04:47:17.164Z,1.6750000000000003
2023-03-22T04:51:15.933Z,2.2375
2023-03-22T04:54:16.907Z,2.4625
2023-03-22T04:57:16.067Z,2.7375
2023-03-22T05:01:17.662Z,2.5374999999999996
2023-03-22T05:04:17.765Z,1.8250000000000002
2023-03-22T05:07:16.999Z,2.7624999999999997
2023-03-22T05:11:17.643Z,1.9
2023-03-22T05:14:16.474Z,1.6125
2023-03-22T05:17:16.419Z,1.7374999999999998
2023-03-22T05:21:17.373Z,2.15
2023-03-22T05:24:16.608Z,2.3
2023-03-22T05:27:16.665Z,1.85
2023-03-22T05:31:17.582Z,2.225
2023-03-22T05:34:16.615Z,2.5125
2023-03-22T05:37:16.937Z,3.0374999999999996
2023-03-22T05:41:16.650Z,1.9000000000000001
2023-03-22T05:44:16.903Z,2.3499999999999996
2023-03-22T05:47:16.905Z,2.5250000000000004
2023-03-22T05:51:17.787Z,2.4375
2023-03-22T05:54:16.283Z,1.9999999999999998
2023-03-22T05:57:19.165Z,1.95
2023-03-22T06:01:16.615Z,1.8625
2023-03-22T06:11:16.261Z,2.4375
2023-03-22T06:14:16.885Z,1.925
2023-03-22T06:17:17.024Z,2.0875
2023-03-22T06:21:15.599Z,2.4125
2023-03-22T06:24:16.081Z,2.2875
2023-03-22T06:27:16.851Z,2.6125
2023-03-22T06:31:15.848Z,3.2375
2023-03-22T06:34:16.020Z,2.3375
2023-03-22T06:37:16.621Z,2.075
2023-03-22T06:41:16.506Z,2.6
2023-03-22T06:44:17.323Z,2.0875
2023-03-22T06:51:16.725Z,2.3
2023-03-22T06:54:17.064Z,2.325
2023-03-22T06:57:16.783Z,2.45
2023-03-22T07:01:16.578Z,2.0500000000000003
2023-03-22T07:04:16.863Z,2.4000000000000004
2023-03-22T07:07:16.895Z,1.8249999999999997
2023-03-22T07:11:16.451Z,2.7875
2023-03-22T07:14:16.680Z,1.9124999999999999
2023-03-22T07:17:16.812Z,2.1500000000000004
2023-03-22T07:21:15.906Z,2.0875
2023-03-22T07:24:16.236Z,2.1125
2023-03-22T07:27:16.243Z,2.375
2023-03-22T07:31:16.120Z,1.9124999999999999
2023-03-22T07:41:17.322Z,2.2875
2023-03-22T07:44:18.616Z,1.95
2023-03-22T07:47:22.085Z,2
2023-03-22T07:51:17.041Z,2.2625
2023-03-22T07:54:32.241Z,2.1
2023-03-22T07:57:16.806Z,2.5374999999999996
2023-03-22T08:01:16.543Z,2.1125
2023-03-22T08:04:17.104Z,1.9625
2023-03-22T08:07:18.660Z,2.1375
2023-03-22T08:11:15.899Z,1.5875000000000001
2023-03-22T08:14:18.528Z,1.875
2023-03-22T08:17:17.109Z,2.25
2023-03-22T08:21:16.342Z,1.375
2023-03-22T08:24:16.795Z,1.6875
2023-03-22T08:27:17.313Z,1.575
2023-03-22T08:31:17.091Z,1.85
2023-03-22T08:34:17.233Z,1.8625000000000003
2023-03-22T08:37:16.693Z,2.3249999999999997
2023-03-22T08:41:16.310Z,1.9625
2023-03-22T08:44:16.108Z,2.4375
2023-03-22T08:47:15.977Z,3.175
2023-03-22T08:51:18.284Z,4.137499999999999
2023-03-22T08:54:16.694Z,3.9875000000000003
2023-03-22T08:57:16.609Z,3.0625
2023-03-22T09:01:16.969Z,3.2
2023-03-22T09:04:16.363Z,2.7625
2023-03-22T09:07:18.156Z,2.075
2023-03-22T09:11:18.004Z,3.55
2023-03-22T09:14:16.814Z,3.3499999999999996
2023-03-22T09:17:21.326Z,5.5125
2023-03-22T09:21:16.227Z,5.225
2023-03-22T09:24:16.664Z,4.637499999999999
2023-03-22T09:27:16.710Z,4.5125
2023-03-22T09:31:19.122Z,5.0375
2023-03-22T09:34:16.938Z,3.4625
2023-03-22T09:37:18.082Z,2.7875
2023-03-22T09:51:29.706Z,2.9000000000000004
2023-03-22T09:54:23.254Z,2.8
2023-03-22T09:57:24.743Z,2.6875
2023-03-22T10:01:28.944Z,1.875
2023-03-22T10:04:29.168Z,2.1375
2023-03-22T10:07:25.177Z,2.8
2023-03-22T10:11:24.342Z,2.5374999999999996
2023-03-22T10:14:28.583Z,2.0875
2023-03-22T10:17:22.793Z,2.9875
2023-03-22T10:21:18.615Z,2.175
2023-03-22T10:24:21.586Z,2.4625000000000004
2023-03-22T10:27:18.997Z,2.8375
2023-03-22T10:31:18.903Z,2.3
2023-03-22T10:34:21.242Z,4.0125
2023-03-22T10:37:19.368Z,3.5749999999999997
2023-03-22T10:41:18.384Z,2.8625
2023-03-22T10:44:18.871Z,2.7625
2023-03-22T10:47:26.355Z,2.15
2023-03-22T11:01:25.477Z,2.8125
2023-03-22T11:04:16.783Z,2.875
2023-03-22T11:07:30.310Z,2.6
2023-03-22T11:11:20.137Z,3.2
2023-03-22T11:14:22.362Z,2.6500000000000004
2023-03-22T11:17:21.806Z,2.3375000000000004
2023-03-22T11:21:18.775Z,3.425
2023-03-22T11:24:18.044Z,2.675
2023-03-22T11:27:20.339Z,2.4124999999999996
2023-03-22T11:31:18.466Z,2.8875
2023-03-22T11:34:18.901Z,3.5374999999999996
2023-03-22T11:37:18.169Z,3.1875
2023-03-22T11:41:22.616Z,2.7125000000000004
2023-03-22T11:44:20.298Z,2.9250000000000003
2023-03-22T11:47:16.574Z,3.1125
2023-03-22T11:51:26.956Z,3.7375
2023-03-22T11:54:28.477Z,2.825
2023-03-22T11:57:22.215Z,2.5374999999999996
2023-03-22T12:01:20.517Z,3.025
2023-03-22T12:04:19.837Z,2.2625
2023-03-22T12:07:18.921Z,2.925
2023-03-22T12:11:23.983Z,2.8125
2023-03-22T12:14:21.607Z,3.975
2023-03-22T12:17:25.731Z,3.925
2023-03-22T12:21:16.773Z,4.875
2023-03-22T12:24:25.117Z,4.625
2023-03-22T12:27:20.694Z,4.0625
2023-03-22T12:31:20.448Z,4.125
2023-03-22T12:34:20.486Z,4.5
2023-03-22T12:37:20.337Z,4.125
2023-03-22T12:41:24.403Z,5.15
2023-03-22T12:44:23.688Z,4.0625
2023-03-22T12:47:23.521Z,3.475
2023-03-22T12:51:15.963Z,4.05
2023-03-22T12:54:19.961Z,3.6125
2023-03-22T12:57:17.315Z,3.7875
2023-03-22T13:01:28.721Z,4.012499999999999
2023-03-22T13:04:49.310Z,3.8124999999999996
2023-03-22T13:07:31.276Z,3.6875
2023-03-22T13:11:23.265Z,3.4375
2023-03-22T13:15:35.071Z,3.8499999999999996
2023-03-22T13:17:33.165Z,3.35
2023-03-22T13:21:19.254Z,3.8875
2023-03-22T13:24:23.426Z,2.6875
2023-03-22T13:27:17.268Z,3.525
2023-03-22T13:31:33.365Z,4.4125
2023-03-22T13:34:19.185Z,3.425
2023-03-22T13:37:30.899Z,2.7624999999999997
2023-03-22T13:41:23.650Z,3.8874999999999997
2023-03-22T13:44:23.809Z,3.4749999999999996
2023-03-22T13:47:36.181Z,2.7249999999999996
2023-03-22T13:51:20.187Z,4.125
2023-03-22T13:54:21.254Z,3.2624999999999997
2023-03-22T13:57:47.094Z,3.3375
2023-03-22T14:01:25.887Z,4.1625
2023-03-22T14:04:29.240Z,2.9250000000000003
2023-03-22T14:07:24.578Z,3.1625
2023-03-22T14:11:21.944Z,2.8249999999999997
2023-03-22T14:14:22.779Z,3.2125000000000004
2023-03-22T14:17:28.836Z,2.9125
2023-03-22T14:21:20.924Z,3
2023-03-22T14:51:27.422Z,4.05
2023-03-22T14:54:25.930Z,3.7375
2023-03-22T14:57:28.454Z,3.725
2023-03-22T15:01:23.269Z,3.625
2023-03-22T15:04:17.590Z,3.1
2023-03-22T15:07:18.902Z,3.1875
2023-03-22T15:11:16.952Z,3.1625
2023-03-22T15:14:16.839Z,2.9375
2023-03-22T15:17:16.300Z,3.45
2023-03-22T15:21:16.559Z,3.2125000000000004
2023-03-22T15:24:27.879Z,3.35
2023-03-22T15:27:17.760Z,3.55
2023-03-22T15:31:23.365Z,3.825
2023-03-22T15:34:19.129Z,4.325
2023-03-22T15:37:24.835Z,4.8625
2023-03-22T15:41:23.517Z,5.2125
2023-03-22T15:44:21.864Z,3.425
2023-03-22T15:47:18.520Z,3.8125000000000004
2023-03-22T15:51:19.062Z,4.125
2023-03-22T15:54:21.709Z,5.0125
2023-03-22T15:57:19.590Z,4.375
2023-03-22T16:01:19.209Z,3.375
2023-03-22T16:04:19.510Z,3.5625
2023-03-22T16:07:16.931Z,4.0625
2023-03-22T16:11:19.955Z,3.275
2023-03-22T16:14:17.530Z,3.225
2023-03-22T16:17:19.063Z,3.05
2023-03-22T16:21:19.294Z,3.3875
2023-03-22T16:24:16.873Z,3.9375
2023-03-22T16:27:19.255Z,3.1500000000000004
2023-03-22T16:31:17.412Z,3.5125
2023-03-22T16:34:16.127Z,3.4875
2023-03-22T16:37:17.865Z,4.75
2023-03-22T16:41:20.900Z,4.1625
2023-03-22T16:44:17.233Z,3.8499999999999996
2023-03-22T16:47:19.453Z,3.4749999999999996
2023-03-22T16:51:22.681Z,3.9625
2023-03-22T16:54:16.866Z,4
2023-03-22T16:57:19.047Z,3.9875
2023-03-22T17:01:18.638Z,4.637499999999999
2023-03-22T17:04:16.119Z,4.275
2023-03-22T17:07:19.000Z,4.4875
2023-03-22T17:11:20.154Z,5.325
2023-03-22T17:14:15.966Z,4.4625
2023-03-22T17:17:17.199Z,7.125
2023-03-22T17:21:18.815Z,8.1375
2023-03-22T17:24:16.320Z,5.3375
2023-03-22T17:27:16.421Z,5.0375
2023-03-22T17:31:18.038Z,6.2625
2023-03-22T17:34:17.071Z,5.9375
2023-03-22T17:37:16.744Z,5.5625
2023-03-22T17:41:18.726Z,6.4125
2023-03-22T17:44:16.343Z,8.4875
2023-03-22T17:47:34.668Z,7.5249999999999995
2023-03-22T17:51:16.095Z,10.0375
2023-03-22T17:54:58.377Z,8.675
2023-03-22T18:01:18.539Z,7.6875
2023-03-22T18:04:16.039Z,6.7125
2023-03-22T18:07:16.120Z,6.825
2023-03-22T18:11:18.491Z,8.3625
2023-03-22T18:14:26.956Z,6.975
2023-03-22T18:17:18.879Z,7.4375
2023-03-22T18:21:17.545Z,7.625000000000001
2023-03-22T18:24:16.570Z,8.225
2023-03-22T18:27:17.815Z,8.8625
2023-03-22T18:31:17.807Z,8.2375
2023-03-22T18:34:18.255Z,7.3625
2023-03-22T18:37:18.758Z,9.5625
2023-03-22T18:44:20.202Z,9.1
2023-03-22T18:47:19.574Z,8.8125
2023-03-22T18:51:18.175Z,10.787500000000001
2023-03-22T18:54:16.474Z,9.7125
2023-03-22T18:57:20.396Z,9.375
2023-03-22T19:01:16.613Z,8.5125
2023-03-22T19:04:17.117Z,7.5875
2023-03-22T19:07:20.312Z,7.65
2023-03-22T19:11:16.829Z,7.5
2023-03-22T19:15:05.717Z,7.300000000000001
2023-03-22T19:17:16.506Z,8.4625
2023-03-22T19:21:26.684Z,9.1
2023-03-22T19:24:16.305Z,7.6125
2023-03-22T19:27:19.266Z,6.574999999999999
2023-03-22T19:31:16.211Z,7.2875
2023-03-22T19:34:16.640Z,5.9875
2023-03-22T19:37:17.848Z,6.375
2023-03-22T19:41:47.235Z,6.4125000000000005
2023-03-22T19:44:17.366Z,5.5249999999999995
2023-03-22T19:47:16.447Z,5.8875
2023-03-22T19:51:17.409Z,6.575
2023-03-22T19:57:18.684Z,7.3999999999999995
2023-03-22T20:01:16.887Z,7.0625
2023-03-22T20:04:16.747Z,6.375
2023-03-22T20:07:19.841Z,5.475
2023-03-22T20:31:17.119Z,7.075
2023-03-22T20:34:16.707Z,11.412500000000001
2023-03-22T20:37:19.198Z,20.2375
2023-03-22T20:41:15.932Z,8.525
2023-03-22T20:44:15.994Z,6.862500000000001
2023-03-22T20:47:16.193Z,6.862500000000001
2023-03-22T20:51:15.598Z,7.824999999999999
2023-03-22T20:54:17.323Z,6.887499999999999
2023-03-22T20:57:17.372Z,8.275
2023-03-22T21:01:18.397Z,7.7125
2023-03-22T21:04:18.604Z,7.35
2023-03-22T21:07:16.726Z,7.637500000000001
2023-03-22T21:11:16.563Z,7.362499999999999
2023-03-22T21:14:16.790Z,6.8125
2023-03-22T21:17:19.075Z,7.0375
2023-03-22T21:21:16.016Z,6.925
2023-03-22T21:24:16.382Z,6.675
2023-03-22T21:27:20.480Z,6.125
2023-03-22T21:31:15.869Z,8.85
2023-03-22T21:34:15.965Z,6.824999999999999
2023-03-22T21:37:16.821Z,7.325
2023-03-22T21:41:16.413Z,10.3125
2023-03-22T21:44:16.101Z,9.662500000000001
2023-03-22T21:47:21.231Z,8.524999999999999
2023-03-22T21:51:16.465Z,6.550000000000001
2023-03-22T21:54:18.414Z,6.5125
2023-03-22T21:57:17.257Z,7.2875000000000005
2023-03-22T22:01:17.227Z,9.45
2023-03-22T22:04:17.576Z,7.7250000000000005
2023-03-22T22:07:17.879Z,9.6875
2023-03-22T22:11:16.075Z,9.7
2023-03-22T22:14:16.401Z,9.325000000000001
2023-03-22T22:17:16.506Z,7.6
2023-03-22T22:21:16.163Z,7.5875
2023-03-22T22:24:16.430Z,7.5
2023-03-22T22:27:18.642Z,6.7875
2023-03-22T22:31:18.522Z,6.7625
2023-03-22T22:34:16.067Z,6.8625
2023-03-22T22:37:16.041Z,7.075
2023-03-22T22:41:17.342Z,7.6125
2023-03-22T22:44:16.438Z,6.8125
2023-03-22T22:47:15.847Z,7.2875000000000005
2023-03-22T22:51:19.685Z,7.6375
2023-03-22T22:54:16.678Z,6.5
2023-03-22T22:57:16.718Z,6.675000000000001
2023-03-22T23:01:18.004Z,7
2023-03-22T23:04:16.885Z,6.1625000000000005
2023-03-22T23:07:16.647Z,6.987500000000001
2023-03-22T23:11:22.691Z,7.787500000000001
2023-03-22T23:14:16.386Z,7.5625
2023-03-22T23:17:18.301Z,7.625
2023-03-22T23:21:18.005Z,8.3
2023-03-22T23:24:16.664Z,7.425
2023-03-22T23:27:17.744Z,6.3125
2023-03-22T23:31:16.442Z,5.5875
2023-03-22T23:34:18.111Z,5.6625000000000005
2023-03-22T23:37:17.650Z,6.75
2023-03-22T23:41:16.808Z,7.112500000000001
2023-03-22T23:44:17.452Z,6.3625
2023-03-22T23:47:16.621Z,6.112500000000001
2023-03-22T23:51:18.528Z,6.3375
2023-03-22T23:54:17.011Z,6.0375
2023-03-22T23:57:22.087Z,6.55
